createdAt,value
2019-05-19T00:01:15.514Z,100025.33
2019-05-19T00:03:45.397Z,100028.80
2019-05-19T00:06:15.779Z,100027.34
2019-05-19T00:08:45.743Z,100030.42
2019-05-19T00:11:17.130Z,100025.13
2019-05-19T00:13:46.954Z,100021.52
2019-05-19T00:16:16.802Z,100015.09
2019-05-19T00:18:46.802Z,100014.20
2019-05-19T00:21:16.814Z,100011.95
2019-05-19T00:23:46.654Z,100008.94
2019-05-19T00:26:16.537Z,100005.05
2019-05-19T00:28:46.550Z,100007.06
2019-05-19T00:31:16.610Z,100005.70
2019-05-19T00:33:47.595Z,100005.33
2019-05-19T00:36:19.588Z,100003.17
2019-05-19T00:38:49.051Z,100002.63
2019-05-19T00:41:19.192Z,100002.05
2019-05-19T00:43:49.105Z,100006.78
2019-05-19T00:46:19.542Z,100003.36
2019-05-19T00:48:49.586Z,100004.15
2019-05-19T00:51:20.019Z,100006.58
2019-05-19T00:53:50.042Z,100001.80
2019-05-19T00:56:20.432Z,100004.70
2019-05-19T00:58:51.122Z,100000.10
2019-05-19T01:01:21.005Z,99996.20
2019-05-19T01:03:50.877Z,99990.63
2019-05-19T01:06:20.784Z,99985.73
2019-05-19T01:08:52.091Z,100000.73
2019-05-19T01:11:22.066Z,99998.38
2019-05-19T01:13:51.982Z,99997.86
2019-05-19T01:16:22.041Z,99983.34
2019-05-19T01:18:51.932Z,99986.55
2019-05-19T01:21:21.826Z,99987.83
2019-05-19T01:23:51.789Z,99984.30
2019-05-19T01:26:21.664Z,99983.22
2019-05-19T01:28:51.467Z,99974.64
2019-05-19T01:31:22.039Z,99974.54
2019-05-19T01:33:52.157Z,99971.50
2019-05-19T01:36:22.416Z,99975.47
2019-05-19T01:38:52.371Z,99966.61
2019-05-19T01:41:22.260Z,99961.45
2019-05-19T01:43:52.186Z,99962.89
2019-05-19T01:46:22.014Z,99965.28
2019-05-19T01:48:51.828Z,99960.78
2019-05-19T01:51:21.742Z,99975.00
2019-05-19T01:53:51.759Z,99969.22
2019-05-19T01:56:21.735Z,99969.53
2019-05-19T01:58:51.483Z,99968.95
2019-05-19T02:01:21.300Z,99961.47
2019-05-19T02:03:52.325Z,99965.64
2019-05-19T02:06:22.211Z,99957.34
2019-05-19T02:08:52.204Z,99955.42
2019-05-19T02:11:22.020Z,99956.14
2019-05-19T02:13:51.826Z,99962.52
2019-05-19T02:16:21.667Z,99956.02
2019-05-19T02:18:51.583Z,99958.33
2019-05-19T02:21:21.763Z,99962.81
2019-05-19T02:23:51.598Z,99966.14
2019-05-19T02:26:21.502Z,99968.66
2019-05-19T02:28:51.474Z,99960.44
2019-05-19T02:31:21.505Z,99965.23
2019-05-19T02:33:51.614Z,99967.11
2019-05-19T02:36:21.704Z,99965.33
2019-05-19T02:38:51.849Z,99964.50
2019-05-19T02:41:24.791Z,99964.72
2019-05-19T02:43:56.677Z,99966.05
2019-05-19T02:46:27.637Z,99972.16
2019-05-19T02:48:58.217Z,99977.15
2019-05-19T02:51:31.309Z,99978.69
2019-05-19T02:54:02.281Z,99980.06
2019-05-19T02:56:33.128Z,99977.89
2019-05-19T02:59:03.960Z,99976.73
2019-05-19T03:01:36.561Z,99977.98
2019-05-19T03:04:06.513Z,99980.00
2019-05-19T03:06:36.387Z,99982.78
2019-05-19T03:09:06.325Z,99992.88
2019-05-19T03:11:36.135Z,99983.16
2019-05-19T03:14:05.905Z,99982.30
2019-05-19T03:16:35.720Z,99989.20
2019-05-19T03:19:05.565Z,99984.52
2019-05-19T03:21:35.592Z,99982.83
2019-05-19T03:24:05.677Z,99989.39
2019-05-19T03:26:35.569Z,99996.41
2019-05-19T03:29:05.860Z,99988.72
2019-05-19T03:31:42.706Z,99980.20
2019-05-19T03:34:12.942Z,99980.84
2019-05-19T03:36:42.812Z,99982.09
2019-05-19T03:39:12.795Z,99988.98
2019-05-19T03:41:42.857Z,99986.92
2019-05-19T03:44:13.034Z,99983.03
2019-05-19T03:46:43.101Z,99989.97
2019-05-19T03:49:12.921Z,99980.05
2019-05-19T03:51:42.732Z,99985.00
2019-05-19T03:54:12.688Z,99982.77
2019-05-19T03:56:42.573Z,99980.66
2019-05-19T03:59:12.510Z,99988.81
2019-05-19T04:01:42.323Z,99990.18
2019-05-19T04:04:12.457Z,99995.98
2019-05-19T04:06:42.307Z,99990.71
2019-05-19T04:09:17.143Z,99995.60
2019-05-19T04:11:45.401Z,99994.45
2019-05-19T04:14:15.294Z,99991.98
2019-05-19T04:16:45.344Z,99996.28
2019-05-19T04:19:15.190Z,99993.70
2019-05-19T04:21:48.590Z,99991.39
2019-05-19T04:24:16.972Z,99999.42
2019-05-19T04:26:46.875Z,100001.80
2019-05-19T04:29:16.627Z,100010.47
2019-05-19T04:31:46.431Z,100007.63
2019-05-19T04:34:16.373Z,100011.34
2019-05-19T04:36:46.233Z,100011.73
2019-05-19T04:39:16.120Z,100012.68
2019-05-19T04:41:46.061Z,100006.98
2019-05-19T04:44:17.419Z,100013.40
2019-05-19T04:46:47.302Z,100022.19
2019-05-19T04:49:17.210Z,100018.12
2019-05-19T04:51:47.052Z,100010.39
2019-05-19T04:54:16.967Z,100008.45
2019-05-19T04:56:47.121Z,100012.34
2019-05-19T04:59:17.011Z,100006.73
2019-05-19T05:01:47.075Z,100007.97
2019-05-19T05:04:17.090Z,100007.34
2019-05-19T05:06:47.355Z,100012.30
2019-05-19T05:09:17.249Z,100004.27
2019-05-19T05:11:47.245Z,99994.91
2019-05-19T05:14:17.330Z,100018.72
2019-05-19T05:16:47.223Z,100016.44
2019-05-19T05:19:17.002Z,100012.52
2019-05-19T05:21:46.982Z,100011.22
2019-05-19T05:24:16.778Z,100011.52
2019-05-19T05:26:46.660Z,100005.08
2019-05-19T05:29:16.449Z,100007.70
2019-05-19T05:31:46.216Z,100002.97
2019-05-19T05:34:16.085Z,99999.92
2019-05-19T05:36:45.960Z,100008.73
2019-05-19T05:39:15.793Z,100002.34
2019-05-19T05:41:45.690Z,100002.84
2019-05-19T05:44:14.618Z,100006.95
2019-05-19T05:46:44.569Z,100000.82
2019-05-19T05:49:14.700Z,99995.27
2019-05-19T05:51:44.628Z,99995.34
2019-05-19T05:54:14.712Z,99994.84
2019-05-19T05:56:44.609Z,100000.16
2019-05-19T05:59:14.542Z,99992.34
2019-05-19T06:01:44.481Z,99996.26
2019-05-19T06:04:14.364Z,99998.20
2019-05-19T06:06:45.861Z,99989.95
2019-05-19T06:09:16.504Z,99986.08
2019-05-19T06:11:46.306Z,99987.24
2019-05-19T06:14:16.519Z,99988.66
2019-05-19T06:16:46.807Z,99988.05
2019-05-19T06:19:17.098Z,99983.23
2019-05-19T06:21:46.945Z,99982.08
2019-05-19T06:24:17.756Z,99982.37
2019-05-19T06:26:47.867Z,99976.68
2019-05-19T06:29:17.679Z,99977.05
2019-05-19T06:31:47.945Z,99981.86
2019-05-19T06:34:18.326Z,99976.34
2019-05-19T06:36:48.169Z,99972.63
2019-05-19T06:39:17.999Z,99977.83
2019-05-19T06:41:47.811Z,99963.55
2019-05-19T06:44:17.648Z,99986.10
2019-05-19T06:46:48.179Z,99984.89
2019-05-19T06:49:17.989Z,99986.39
2019-05-19T06:51:48.141Z,99986.11
2019-05-19T06:54:17.976Z,99981.64
2019-05-19T06:56:47.860Z,99983.73
2019-05-19T06:59:17.977Z,99982.34
2019-05-19T07:01:49.321Z,99989.29
2019-05-19T07:04:19.231Z,99977.74
2019-05-19T07:06:49.178Z,99975.27
2019-05-19T07:09:19.399Z,99970.36
2019-05-19T07:11:49.194Z,99979.18
2019-05-19T07:14:19.031Z,99970.25
2019-05-19T07:16:49.042Z,99974.25
2019-05-19T07:19:21.045Z,99970.81
2019-05-19T07:21:51.137Z,99974.27
2019-05-19T07:24:21.113Z,99970.23
2019-05-19T07:26:51.029Z,99976.60
2019-05-19T07:29:21.219Z,99976.30
2019-05-19T07:31:51.042Z,99977.25
2019-05-19T07:34:21.302Z,99976.92
2019-05-19T07:36:51.441Z,99977.64
2019-05-19T07:39:21.379Z,99974.44
2019-05-19T07:41:51.553Z,99974.75
2019-05-19T07:44:21.421Z,99966.03
2019-05-19T07:46:51.464Z,99965.70
2019-05-19T07:49:21.406Z,99966.76
2019-05-19T07:51:51.271Z,99964.77
2019-05-19T07:54:21.662Z,99965.59
2019-05-19T07:56:53.023Z,99970.27
2019-05-19T07:59:23.973Z,99967.94
2019-05-19T08:01:54.966Z,99959.56
2019-05-19T08:04:25.730Z,99967.42
2019-05-19T08:06:55.548Z,99958.61
2019-05-19T08:09:25.558Z,99962.31
2019-05-19T08:11:55.925Z,99964.54
2019-05-19T08:14:25.892Z,99958.71
2019-05-19T08:16:56.191Z,99960.88
2019-05-19T08:19:26.143Z,99954.91
2019-05-19T08:21:56.451Z,99950.11
2019-05-19T08:24:26.253Z,99943.92
2019-05-19T08:26:56.685Z,99950.08
2019-05-19T08:29:26.709Z,99946.86
2019-05-19T08:31:56.915Z,99943.86
2019-05-19T08:34:26.916Z,99928.52
2019-05-19T08:36:56.745Z,99947.14
2019-05-19T08:39:26.773Z,99951.12
2019-05-19T08:41:56.583Z,99944.98
2019-05-19T08:44:26.607Z,99948.23
2019-05-19T08:46:56.598Z,99945.19
2019-05-19T08:49:26.502Z,99937.84
2019-05-19T08:51:56.943Z,99940.33
2019-05-19T08:54:26.861Z,99940.94
2019-05-19T08:56:56.804Z,99938.13
2019-05-19T08:59:26.968Z,99935.95
2019-05-19T09:01:57.553Z,99940.94
2019-05-19T09:04:27.429Z,99885.05
2019-05-19T09:06:57.438Z,99934.92
2019-05-19T09:09:27.314Z,99941.03
2019-05-19T09:11:57.656Z,99935.99
2019-05-19T09:14:27.699Z,99929.89
2019-05-19T09:16:57.829Z,99930.00
2019-05-19T09:19:27.890Z,99929.48
2019-05-19T09:21:57.761Z,99926.21
2019-05-19T09:24:30.328Z,99926.06
2019-05-19T09:26:59.645Z,99925.33
2019-05-19T09:29:29.809Z,99920.30
2019-05-19T09:32:00.108Z,99916.87
2019-05-19T09:34:30.429Z,99902.92
2019-05-19T09:37:00.300Z,99905.85
2019-05-19T09:39:30.319Z,99899.70
2019-05-19T09:42:00.515Z,99891.03
2019-05-19T09:44:30.405Z,99892.41
2019-05-19T09:47:00.486Z,99888.92
2019-05-19T09:49:33.613Z,99895.51
2019-05-19T09:52:05.363Z,99891.88
2019-05-19T09:54:44.763Z,99891.11
2019-05-19T09:57:07.405Z,99889.41
2019-05-19T09:59:37.233Z,99884.17
2019-05-19T10:02:07.352Z,99881.38
2019-05-19T10:04:37.377Z,99879.91
2019-05-19T10:07:08.004Z,99883.43
2019-05-19T10:09:58.175Z,99876.25
2019-05-19T10:12:28.380Z,99882.22
2019-05-19T10:14:58.677Z,99881.05
2019-05-19T10:17:28.734Z,99883.92
2019-05-19T10:19:58.660Z,99875.04
2019-05-19T10:22:28.565Z,99884.63
2019-05-19T10:25:19.911Z,99878.64
2019-05-19T10:27:29.970Z,99883.34
2019-05-19T10:30:01.316Z,99870.00
2019-05-19T10:32:31.608Z,99871.70
2019-05-19T10:35:01.533Z,99872.16
2019-05-19T10:37:31.693Z,99864.44
2019-05-19T10:40:01.877Z,99872.86
2019-05-19T10:42:31.797Z,99872.42
2019-05-19T10:45:01.823Z,99864.23
2019-05-19T10:47:31.982Z,99862.28
2019-05-19T10:50:01.845Z,99867.70
2019-05-19T10:52:31.682Z,99864.34
2019-05-19T10:55:01.665Z,99869.75
2019-05-19T10:57:31.476Z,99862.38
2019-05-19T11:00:01.270Z,99856.52
2019-05-19T11:02:31.536Z,99861.89
2019-05-19T11:05:02.469Z,99851.63
2019-05-19T11:07:32.309Z,99855.73
2019-05-19T11:10:02.085Z,99849.96
2019-05-19T11:12:32.570Z,99849.12
2019-05-19T11:15:03.062Z,99844.73
2019-05-19T11:17:32.953Z,99846.90
2019-05-19T11:20:02.784Z,99852.02
2019-05-19T11:22:32.793Z,99847.84
2019-05-19T11:25:03.007Z,99850.69
2019-05-19T11:27:33.064Z,99828.42
2019-05-19T11:30:02.902Z,99848.05
2019-05-19T11:32:33.185Z,99834.36
2019-05-19T11:35:04.263Z,99843.63
2019-05-19T11:37:34.518Z,99833.08
2019-05-19T11:40:04.463Z,99846.45
2019-05-19T11:42:34.447Z,99835.63
2019-05-19T11:45:06.080Z,99837.12
2019-05-19T11:47:38.045Z,99831.53
2019-05-19T11:50:09.218Z,99836.44
2019-05-19T11:52:39.628Z,99828.55
2019-05-19T11:55:13.307Z,99834.70
2019-05-19T11:57:47.848Z,99833.52
2019-05-19T12:00:22.709Z,99829.94
2019-05-19T12:02:52.516Z,99827.70
2019-05-19T12:05:23.042Z,99831.02
2019-05-19T12:07:53.083Z,99828.17
2019-05-19T12:10:24.043Z,99816.70
2019-05-19T12:12:54.015Z,99811.08
2019-05-19T12:15:24.209Z,99817.48
2019-05-19T12:17:59.038Z,99808.80
2019-05-19T12:20:29.266Z,99814.51
2019-05-19T12:23:01.184Z,99808.95
2019-05-19T12:25:32.891Z,99820.30
2019-05-19T12:28:03.280Z,99816.09
2019-05-19T12:30:33.225Z,99815.88
2019-05-19T12:33:03.261Z,99802.45
2019-05-19T12:35:40.398Z,99804.00
2019-05-19T12:38:14.557Z,99804.97
2019-05-19T12:40:52.458Z,99799.46
2019-05-19T12:43:24.563Z,99799.66
2019-05-19T12:45:54.626Z,99795.30
2019-05-19T12:48:25.084Z,99791.91
2019-05-19T12:51:02.988Z,99794.69
2019-05-19T12:53:38.077Z,99795.75
2019-05-19T12:56:08.476Z,99788.86
2019-05-19T12:58:38.335Z,99786.90
2019-05-19T13:01:08.707Z,99784.38
2019-05-19T13:03:47.001Z,99784.52
2019-05-19T13:06:17.160Z,99770.32
2019-05-19T13:08:51.174Z,99768.62
2019-05-19T13:11:20.203Z,99770.87
2019-05-19T13:13:50.036Z,99774.89
2019-05-19T13:16:19.987Z,99773.89
2019-05-19T13:18:52.561Z,99765.19
2019-05-19T13:21:22.440Z,99771.61
2019-05-19T13:24:06.134Z,99765.28
2019-05-19T13:26:37.544Z,99756.86
2019-05-19T13:29:14.053Z,99761.80
2019-05-19T13:31:44.643Z,99766.87
2019-05-19T13:34:14.623Z,99769.20
2019-05-19T13:36:53.687Z,99768.08
2019-05-19T13:39:20.953Z,99769.44
2019-05-19T13:41:50.963Z,99775.14
2019-05-19T13:44:23.820Z,99772.23
2019-05-19T13:46:53.910Z,99758.50
2019-05-19T13:49:33.117Z,99759.86
2019-05-19T13:52:18.966Z,99756.86
2019-05-19T13:54:49.783Z,99750.26
2019-05-19T13:57:19.568Z,99763.87
2019-05-19T13:59:49.583Z,99751.36
2019-05-19T14:02:19.600Z,99755.84
2019-05-19T14:04:50.048Z,99755.33
2019-05-19T14:07:20.192Z,99750.80
2019-05-19T14:09:50.193Z,99753.89
2019-05-19T14:12:20.183Z,99754.73
2019-05-19T14:14:50.131Z,99748.97
2019-05-19T14:17:26.648Z,99752.00
2019-05-19T14:19:56.564Z,99745.75
2019-05-19T14:22:33.459Z,99756.69
2019-05-19T14:25:03.929Z,99758.23
2019-05-19T14:27:34.716Z,99761.41
2019-05-19T14:30:05.057Z,99758.20
2019-05-19T14:32:35.181Z,99756.84
2019-05-19T14:35:14.104Z,99754.82
2019-05-19T14:37:44.232Z,99753.02
2019-05-19T14:40:29.906Z,99754.80
2019-05-19T14:43:03.631Z,99762.13
2019-05-19T14:45:39.714Z,99756.20
2019-05-19T14:48:09.570Z,99761.47
2019-05-19T14:50:57.992Z,99762.02
2019-05-19T14:53:26.418Z,99755.77
2019-05-19T14:55:59.435Z,99763.63
2019-05-19T14:58:29.289Z,99759.86
2019-05-19T15:01:28.998Z,99757.30
2019-05-19T15:04:05.987Z,99751.20
2019-05-19T15:06:46.626Z,99758.05
2019-05-19T15:09:17.075Z,99754.53
2019-05-19T15:11:48.139Z,99753.88
2019-05-19T15:14:26.727Z,99749.76
2019-05-19T15:16:57.483Z,99748.94
2019-05-19T15:19:27.448Z,99748.13
2019-05-19T15:22:04.094Z,99746.66
2019-05-19T15:24:33.908Z,99747.63
2019-05-19T15:27:04.176Z,99757.71
2019-05-19T15:29:34.651Z,99754.30
2019-05-19T15:32:06.354Z,99754.34
2019-05-19T15:34:37.244Z,99749.98
2019-05-19T15:37:08.059Z,99753.45
2019-05-19T15:39:39.795Z,99753.62
2019-05-19T15:42:10.702Z,99755.32
2019-05-19T15:44:40.677Z,99749.79
2019-05-19T15:47:10.635Z,99744.77
2019-05-19T15:49:40.925Z,99742.28
2019-05-19T15:52:11.119Z,99745.38
2019-05-19T15:54:41.135Z,99740.97
2019-05-19T15:57:11.100Z,99732.50
2019-05-19T15:59:41.252Z,99725.88
2019-05-19T16:02:11.403Z,99725.31
2019-05-19T16:04:41.700Z,99723.11
2019-05-19T16:07:15.707Z,99723.20
2019-05-19T16:09:48.096Z,99720.66
2019-05-19T16:12:17.995Z,99717.31
2019-05-19T16:14:48.864Z,99722.26
2019-05-19T16:17:18.774Z,99724.10
2019-05-19T16:19:48.698Z,99714.77
2019-05-19T16:22:18.635Z,99714.94
2019-05-19T16:24:48.594Z,99713.89
2019-05-19T16:27:19.110Z,99713.72
2019-05-19T16:29:49.889Z,99706.75
2019-05-19T16:32:19.755Z,99709.63
2019-05-19T16:34:49.521Z,99704.82
2019-05-19T16:37:19.423Z,99704.72
2019-05-19T16:39:49.482Z,99702.08
2019-05-19T16:42:19.956Z,99699.37
2019-05-19T16:44:49.874Z,99704.47
2019-05-19T16:47:19.764Z,99699.23
2019-05-19T16:49:49.929Z,99700.88
2019-05-19T16:52:19.957Z,99695.53
2019-05-19T16:55:08.937Z,99700.12
2019-05-19T16:57:39.290Z,99701.22
2019-05-19T17:00:09.522Z,99703.64
2019-05-19T17:02:39.597Z,99695.87
2019-05-19T17:05:09.962Z,99695.83
2019-05-19T17:07:39.988Z,99698.84
2019-05-19T17:10:10.258Z,99695.50
2019-05-19T17:12:40.265Z,99697.23
2019-05-19T17:15:10.942Z,99700.71
2019-05-19T17:17:41.347Z,99694.25
2019-05-19T17:20:11.769Z,99689.45
2019-05-19T17:22:42.272Z,99692.56
2019-05-19T17:25:13.139Z,99695.09
2019-05-19T17:27:43.382Z,99694.62
2019-05-19T17:30:14.264Z,99694.55
2019-05-19T17:32:44.691Z,99696.56
2019-05-19T17:35:15.426Z,99694.73
2019-05-19T17:37:45.193Z,99693.25
2019-05-19T17:40:15.496Z,99701.28
2019-05-19T17:42:45.786Z,99700.66
2019-05-19T17:45:16.410Z,99707.32
2019-05-19T17:47:47.980Z,99710.21
2019-05-19T17:50:22.025Z,99704.48
2019-05-19T17:52:51.101Z,99702.97
2019-05-19T17:55:20.947Z,99706.62
2019-05-19T17:57:51.186Z,99706.53
2019-05-19T18:00:32.914Z,99708.98
2019-05-19T18:03:02.894Z,99714.41
2019-05-19T18:05:32.897Z,99712.16
2019-05-19T18:08:03.355Z,99713.31
2019-05-19T18:10:33.456Z,99715.67
2019-05-19T18:13:04.024Z,99711.62
2019-05-19T18:15:34.009Z,99711.45
2019-05-19T18:18:03.924Z,99716.95
2019-05-19T18:20:33.804Z,99720.30
2019-05-19T18:23:03.775Z,99720.61
2019-05-19T18:25:33.821Z,99712.41
2019-05-19T18:28:03.744Z,99711.44
2019-05-19T18:30:33.833Z,99715.63
2019-05-19T18:33:03.943Z,99712.15
2019-05-19T18:35:33.840Z,99715.47
2019-05-19T18:38:03.883Z,99714.50
2019-05-19T18:40:33.828Z,99720.69
2019-05-19T18:43:03.961Z,99701.83
2019-05-19T18:45:33.962Z,99717.77
2019-05-19T18:48:04.329Z,99721.45
2019-05-19T18:50:34.594Z,99719.91
2019-05-19T18:53:04.600Z,99724.02
2019-05-19T18:55:34.350Z,99721.63
2019-05-19T18:58:04.228Z,99728.25
2019-05-19T19:00:38.558Z,99728.91
2019-05-19T19:03:07.759Z,99732.56
2019-05-19T19:05:37.735Z,99733.42
2019-05-19T19:08:07.731Z,99739.69
2019-05-19T19:10:37.809Z,99735.61
2019-05-19T19:13:07.900Z,99732.02
2019-05-19T19:15:37.797Z,99739.02
2019-05-19T19:18:07.866Z,99748.63
2019-05-19T19:20:37.871Z,99743.66
2019-05-19T19:23:08.478Z,99739.89
2019-05-19T19:25:38.398Z,99747.33
2019-05-19T19:28:08.753Z,99748.79
2019-05-19T19:30:38.631Z,99754.99
2019-05-19T19:33:08.671Z,99755.57
2019-05-19T19:35:39.784Z,99756.06
2019-05-19T19:38:10.404Z,99755.90
2019-05-19T19:40:40.624Z,99743.97
2019-05-19T19:43:11.213Z,99760.25
2019-05-19T19:45:41.287Z,99762.15
2019-05-19T19:48:11.514Z,99765.66
2019-05-19T19:50:42.502Z,99759.32
2019-05-19T19:53:12.763Z,99759.09
2019-05-19T19:55:42.819Z,99764.31
2019-05-19T19:58:12.836Z,99761.88
2019-05-19T20:00:44.768Z,99760.44
2019-05-19T20:03:15.680Z,99758.48
2019-05-19T20:05:47.190Z,99758.48
2019-05-19T20:08:18.433Z,99761.83
2019-05-19T20:10:48.558Z,99763.34
2019-05-19T20:13:18.560Z,99758.33
2019-05-19T20:15:48.679Z,99769.50
2019-05-19T20:18:19.001Z,99770.60
2019-05-19T20:20:49.609Z,99767.23
2019-05-19T20:23:19.603Z,99776.04
2019-05-19T20:25:49.845Z,99773.94
2019-05-19T20:28:19.708Z,99779.94
2019-05-19T20:30:49.748Z,99780.67
2019-05-19T20:33:19.925Z,99781.44
2019-05-19T20:35:49.733Z,99784.57
2019-05-19T20:38:19.808Z,99791.66
2019-05-19T20:40:49.720Z,99779.41
2019-05-19T20:43:19.784Z,99783.33
2019-05-19T20:45:49.850Z,99783.84
2019-05-19T20:48:19.700Z,99782.22
2019-05-19T20:50:49.466Z,99787.54
2019-05-19T20:53:19.849Z,99762.94
2019-05-19T20:55:49.817Z,99787.30
2019-05-19T20:58:19.667Z,99792.91
2019-05-19T21:00:51.860Z,99790.40
2019-05-19T21:03:21.629Z,99776.67
2019-05-19T21:05:52.606Z,99784.39
2019-05-19T21:08:22.987Z,99776.22
2019-05-19T21:10:53.413Z,99779.98
2019-05-19T21:13:23.508Z,99778.09
2019-05-19T21:15:53.940Z,99783.12
2019-05-19T21:18:23.814Z,99783.45
2019-05-19T21:20:53.812Z,99778.28
2019-05-19T21:23:24.117Z,99779.45
2019-05-19T21:25:54.033Z,99784.48
2019-05-19T21:28:24.164Z,99786.02
2019-05-19T21:31:05.289Z,99785.89
2019-05-19T21:33:25.691Z,99787.81
2019-05-19T21:35:55.535Z,99791.41
2019-05-19T21:38:25.380Z,99789.11
2019-05-19T21:40:55.186Z,99793.19
2019-05-19T21:43:25.217Z,99784.03
2019-05-19T21:45:55.383Z,99790.33
2019-05-19T21:48:34.820Z,99786.77
2019-05-19T21:51:04.922Z,99791.23
2019-05-19T21:53:34.830Z,99784.20
2019-05-19T21:56:05.098Z,99783.04
2019-05-19T21:58:35.348Z,99786.69
2019-05-19T22:01:05.455Z,99749.81
2019-05-19T22:03:35.427Z,99786.94
2019-05-19T22:06:07.844Z,99782.34
2019-05-19T22:08:38.135Z,99780.64
2019-05-19T22:11:08.082Z,99789.17
2019-05-19T22:13:39.080Z,99792.36
2019-05-19T22:16:12.867Z,99799.69
2019-05-19T22:18:40.650Z,99799.55
2019-05-19T22:21:10.681Z,99793.11
2019-05-19T22:23:40.857Z,99797.64
2019-05-19T22:26:10.915Z,99794.95
2019-05-19T22:28:41.219Z,99795.66
2019-05-19T22:31:11.194Z,99797.50
2019-05-19T22:33:41.109Z,99799.34
2019-05-19T22:36:11.409Z,99800.44
2019-05-19T22:38:41.400Z,99802.34
2019-05-19T22:41:11.349Z,99797.10
2019-05-19T22:43:41.319Z,99800.67
2019-05-19T22:46:12.208Z,99800.45
2019-05-19T22:48:42.329Z,99802.28
2019-05-19T22:51:12.202Z,99803.69
2019-05-19T22:53:42.253Z,99804.42
2019-05-19T22:56:12.108Z,99800.74
2019-05-19T22:58:42.527Z,99806.25
2019-05-19T23:01:13.737Z,99806.56
2019-05-19T23:03:43.724Z,99806.77
2019-05-19T23:06:13.538Z,99805.85
2019-05-19T23:08:43.469Z,99806.83
2019-05-19T23:11:14.102Z,99805.06
2019-05-19T23:13:44.035Z,99805.38
2019-05-19T23:16:14.297Z,99804.91
2019-05-19T23:18:44.377Z,99811.20
2019-05-19T23:21:14.255Z,99806.80
2019-05-19T23:23:44.367Z,99805.92
2019-05-19T23:26:14.248Z,99807.30
2019-05-19T23:28:44.199Z,99805.08
2019-05-19T23:31:14.084Z,99805.77
2019-05-19T23:33:44.207Z,99805.52
2019-05-19T23:36:14.339Z,99801.47
2019-05-19T23:38:44.168Z,99798.84
2019-05-19T23:41:14.433Z,99795.81
2019-05-19T23:43:44.271Z,99793.19
2019-05-19T23:46:14.125Z,99793.66
2019-05-19T23:48:44.054Z,99791.53
2019-05-19T23:51:14.021Z,99795.47
2019-05-19T23:53:43.978Z,99787.50
2019-05-19T23:56:13.994Z,99791.78
2019-05-19T23:58:44.022Z,99785.66
